Time;durP1;ratioP1;P1;durP2;ratioP2;P2;SDS_P1;SDS_P2;PMS_P1;PMS_P2;Temp;Humidity;BMP_temperature;BMP_pressure;BME280_temperature;BME280_humidity;BME280_pressure;Samples;Min_cycle;Max_cycle;Signal;HPM_P1;HPM_P2
2021/09/01 00:00:52;;;;;;;2.45;2.20;;;;;;;14.89;100.00;100409.87;1654357;84;25731;-79
2021/09/01 00:03:19;;;;;;;3.83;2.77;;;;;;;14.90;100.00;100414.23;1652780;84;25829;-79
2021/09/01 00:05:46;;;;;;;7.03;1.92;;;;;;;14.90;100.00;100411.03;1669011;84;25340;-79
2021/09/01 00:08:13;;;;;;;2.35;2.00;;;;;;;14.90;100.00;100404.80;1615481;87;27550;-80
2021/09/01 00:10:41;;;;;;;5.62;2.65;;;;;;;14.88;100.00;100407.73;1658410;84;26574;-79
2021/09/01 00:13:08;;;;;;;4.20;2.42;;;;;;;14.88;100.00;100402.84;1652496;85;25771;-79
2021/09/01 00:15:36;;;;;;;4.03;2.17;;;;;;;14.88;100.00;100405.03;1666788;84;26958;-80
2021/09/01 00:18:03;;;;;;;4.80;2.87;;;;;;;14.88;100.00;100402.84;1616822;86;25851;-80
2021/09/01 00:20:30;;;;;;;2.50;2.30;;;;;;;14.87;100.00;100407.41;1631973;84;27402;-79
2021/09/01 00:22:57;;;;;;;2.77;2.47;;;;;;;14.86;100.00;100415.72;1677002;84;26499;-79
2021/09/01 00:25:24;;;;;;;3.40;2.60;;;;;;;14.85;100.00;100408.66;1669161;84;25826;-79
2021/09/01 00:27:51;;;;;;;5.58;2.62;;;;;;;14.86;100.00;100415.72;1627150;85;26660;-79
2021/09/01 00:30:18;;;;;;;2.75;2.33;;;;;;;14.86;100.00;100412.52;1629907;85;25941;-79
2021/09/01 00:32:45;;;;;;;5.53;2.67;;;;;;;14.87;100.00;100414.15;1668161;85;27538;-79
2021/09/01 00:35:12;;;;;;;2.90;2.55;;;;;;;14.85;100.00;100418.94;1668081;84;25956;-79
2021/09/01 00:37:39;;;;;;;3.00;2.70;;;;;;;14.83;100.00;100421.03;1653184;85;25900;-80
2021/09/01 00:40:08;;;;;;;4.12;2.72;;;;;;;14.79;100.00;100421.16;1632462;85;25861;-79
2021/09/01 00:42:38;;;;;;;3.77;3.17;;;;;;;14.77;100.00;100425.95;1675003;84;25788;-79
2021/09/01 00:45:07;;;;;;;4.08;3.05;;;;;;;14.76;100.00;100426.14;1644452;86;28641;-79
2021/09/01 00:47:39;;;;;;;3.08;2.80;;;;;;;14.74;100.00;100429.07;1597886;87;25898;-79
2021/09/01 00:50:10;;;;;;;3.47;3.05;;;;;;;14.72;100.00;100427.63;1598371;87;25394;-79
2021/09/01 00:52:41;;;;;;;4.22;3.10;;;;;;;14.71;100.00;100430.03;1625025;87;25996;-79
2021/09/01 00:55:10;;;;;;;;;;;;;;;14.68;100.00;100440.22;1632302;87;25837;-79
2021/09/01 00:57:41;;;;;;;5.05;2.90;;;;;;;14.66;100.00;100436.91;1636498;84;27481;-79
2021/09/01 01:00:12;;;;;;;6.87;3.60;;;;;;;14.63;100.00;100440.03;1636454;85;25902;-80
2021/09/01 01:02:40;;;;;;;5.70;3.50;;;;;;;14.66;100.00;100442.81;1654131;84;26371;-79
2021/09/01 01:05:09;;;;;;;4.72;3.30;;;;;;;14.67;100.00;100442.59;1677559;84;26775;-79
2021/09/01 01:07:37;;;;;;;5.00;3.17;;;;;;;14.69;100.00;100443.74;1651962;85;25902;-80
2021/09/01 01:10:05;;;;;;;3.33;3.02;;;;;;;14.67;100.00;100445.80;1632645;85;27558;-80
2021/09/01 01:12:33;;;;;;;3.17;2.50;;;;;;;14.66;100.00;100449.56;1654880;84;26151;-80
2021/09/01 01:15:00;;;;;;;4.12;3.12;;;;;;;14.66;100.00;100440.13;1649237;85;26016;-80
2021/09/01 01:17:27;;;;;;;7.65;3.40;;;;;;;14.63;100.00;100442.72;1631664;84;26140;-79
2021/09/01 01:19:54;;;;;;;4.28;3.00;;;;;;;14.61;100.00;100443.98;1663590;84;25335;-80
2021/09/01 01:22:25;;;;;;;6.67;3.50;;;;;;;14.59;100.00;100441.50;1672876;84;27726;-80
2021/09/01 01:24:58;;;;;;;5.37;3.33;;;;;;;14.59;100.00;100445.55;1655742;84;25570;-79
2021/09/01 01:27:32;;;;;;;3.17;2.87;;;;;;;14.59;100.00;100448.25;1650518;85;25891;-79
2021/09/01 01:30:13;;;;;;;5.17;3.15;;;;;;;14.58;100.00;100451.97;1650943;84;25755;-80
2021/09/01 01:32:43;;;;;;;5.10;3.45;;;;;;;14.57;100.00;100456.23;1654765;84;26003;-80
2021/09/01 01:35:11;;;;;;;5.12;3.05;;;;;;;14.54;100.00;100461.53;1672173;85;27634;-78
2021/09/01 01:37:40;;;;;;;4.03;2.70;;;;;;;14.55;100.00;100464.55;1655777;84;25873;-79
2021/09/01 01:40:08;;;;;;;4.35;3.33;;;;;;;14.54;100.00;100461.53;1649800;84;26578;-79
2021/09/01 01:42:40;;;;;;;5.08;3.42;;;;;;;14.53;100.00;100471.19;1676911;84;26765;-80
2021/09/01 01:45:09;;;;;;;6.95;3.92;;;;;;;14.51;100.00;100460.64;1630536;85;25895;-81
2021/09/01 01:47:37;;;;;;;4.65;3.45;;;;;;;14.51;100.00;100467.89;1652385;84;28013;-80
2021/09/01 01:50:05;;;;;;;6.30;3.72;;;;;;;14.51;100.00;100468.72;1661303;85;25929;-79
2021/09/01 01:52:33;;;;;;;6.40;4.20;;;;;;;14.50;100.00;100473.79;1671326;84;25825;-80
2021/09/01 01:55:00;;;;;;;6.05;3.80;;;;;;;14.50;100.00;100475.14;1654091;84;25882;-80
2021/09/01 01:57:27;;;;;;;5.40;4.03;;;;;;;14.52;100.00;100473.59;1626099;85;26538;-79
2021/09/01 01:59:54;;;;;;;5.90;4.28;;;;;;;14.52;100.00;100478.99;1628271;85;27454;-79
2021/09/01 02:02:22;;;;;;;8.60;4.45;;;;;;;14.51;100.00;100472.77;1671412;84;25835;-79
2021/09/01 02:04:49;;;;;;;5.55;4.37;;;;;;;14.52;100.00;100470.91;1656171;85;25883;-79
2021/09/01 02:07:16;;;;;;;5.30;4.60;;;;;;;14.52;100.00;100473.59;1654098;85;25846;-79
2021/09/01 02:09:43;;;;;;;9.43;4.30;;;;;;;14.50;100.00;100476.48;1630552;84;26745;-78
2021/09/01 02:12:10;;;;;;;6.12;4.15;;;;;;;14.50;100.00;100473.79;1674330;84;27489;-79
2021/09/01 02:14:38;;;;;;;5.08;4.37;;;;;;;14.50;100.00;100477.00;1628698;84;46022;-79
2021/09/01 02:17:05;;;;;;;4.78;4.20;;;;;;;14.48;100.00;100473.18;1621376;87;26654;-79
2021/09/01 02:19:32;;;;;;;4.42;4.03;;;;;;;14.48;100.00;100485.83;1620769;87;26437;-80
2021/09/01 02:21:59;;;;;;;5.00;4.50;;;;;;;14.47;100.00;100480.98;1674971;84;26581;-80
2021/09/01 02:24:26;;;;;;;5.40;4.62;;;;;;;14.46;100.00;100487.39;1666974;85;28207;-79
2021/09/01 02:26:53;;;;;;;4.33;3.92;;;;;;;14.43;100.00;100485.15;1617111;86;26482;-79
2021/09/01 02:29:21;;;;;;;4.90;4.45;;;;;;;14.44;100.00;100489.99;1610566;87;26041;-80
2021/09/01 02:31:48;;;;;;;5.17;4.05;;;;;;;14.43;100.00;100495.92;1643084;87;26413;-79
2021/09/01 02:34:15;;;;;;;7.58;5.10;;;;;;;14.41;100.00;100497.17;1604643;87;25877;-79
2021/09/01 02:36:42;;;;;;;8.30;4.60;;;;;;;14.39;100.00;100493.33;1601389;86;28265;-79
2021/09/01 02:39:09;;;;;;;6.08;4.03;;;;;;;14.38;100.00;100495.73;1578746;87;25819;-80
2021/09/01 02:41:36;;;;;;;7.08;4.87;;;;;;;14.38;100.00;100491.69;1669007;84;26526;-79
2021/09/01 02:44:03;;;;;;;9.60;4.75;;;;;;;14.36;100.00;100493.77;1669904;84;25931;-80
2021/09/01 02:46:30;;;;;;;6.45;4.78;;;;;;;14.36;100.00;100491.59;1652752;85;25844;-79
2021/09/01 02:48:58;;;;;;;5.22;3.90;;;;;;;14.36;100.00;100499.67;1630880;84;27434;-80
2021/09/01 02:51:25;;;;;;;6.42;3.67;;;;;;;14.35;100.00;100500.19;1671140;84;25893;-79
2021/09/01 02:53:52;;;;;;;6.92;4.78;;;;;;;14.34;100.00;100496.37;1674128;84;25333;-80
2021/09/01 02:56:19;;;;;;;7.50;4.47;;;;;;;14.33;100.00;100504.96;1651020;85;26308;-81
2021/09/01 02:58:46;;;;;;;4.15;3.52;;;;;;;14.34;100.00;100504.45;1632172;85;26000;-80
2021/09/01 03:01:14;;;;;;;6.92;3.83;;;;;;;14.33;100.00;100506.83;1669480;85;28128;-81
2021/09/01 03:03:40;;;;;;;7.00;3.83;;;;;;;14.33;100.00;100507.66;1651467;85;26493;-80
2021/09/01 03:06:07;;;;;;;4.65;3.83;;;;;;;14.32;100.00;100509.23;1629089;84;25905;-79
2021/09/01 03:08:34;;;;;;;4.90;4.12;;;;;;;14.32;100.00;100510.58;1629399;84;25891;-79
2021/09/01 03:11:01;;;;;;;4.33;3.92;;;;;;;14.30;100.00;100517.53;1669685;84;25799;-80
2021/09/01 03:13:28;;;;;;;4.37;3.83;;;;;;;14.28;100.00;100518.23;1671454;85;27668;-79
2021/09/01 03:15:55;;;;;;;4.83;4.08;;;;;;;14.29;100.00;100522.60;1600657;86;26080;-80
2021/09/01 03:18:22;;;;;;;4.08;3.67;;;;;;;14.30;100.00;100532.86;1628206;84;25902;-80
2021/09/01 03:20:50;;;;;;;4.90;3.65;;;;;;;14.28;100.00;100529.02;1670344;84;25873;-80
2021/09/01 03:23:17;;;;;;;5.75;4.40;;;;;;;14.29;100.00;100529.34;1671265;85;25808;-79
2021/09/01 03:25:45;;;;;;;5.03;4.40;;;;;;;14.28;100.00;100531.70;1625927;85;27544;-79
2021/09/01 03:28:12;;;;;;;4.58;4.03;;;;;;;14.29;100.00;100537.42;1662387;84;26231;-79
2021/09/01 03:30:39;;;;;;;10.58;4.33;;;;;;;14.30;100.00;100540.95;1673273;84;25914;-79
2021/09/01 03:33:06;;;;;;;6.17;4.40;;;;;;;14.29;100.00;100541.46;1674520;84;25832;-79
2021/09/01 03:35:33;;;;;;;8.48;4.80;;;;;;;14.28;100.00;100541.65;1619127;84;26521;-79
2021/09/01 03:38:00;;;;;;;5.42;4.22;;;;;;;14.27;100.00;100550.25;1676001;84;27459;-79
2021/09/01 03:40:27;;;;;;;5.70;4.95;;;;;;;14.28;100.00;100546.53;1654431;84;25867;-79
2021/09/01 03:42:54;;;;;;;4.90;3.92;;;;;;;14.28;100.00;100547.88;1618016;86;25857;-79
2021/09/01 03:45:21;;;;;;;5.83;4.80;;;;;;;14.28;100.00;100551.08;1640966;87;25850;-79
2021/09/01 03:47:48;;;;;;;5.58;4.72;;;;;;;14.27;100.00;100550.25;1668239;85;25922;-79
2021/09/01 03:50:15;;;;;;;7.47;4.97;;;;;;;14.28;100.00;100561.86;1654668;85;28020;-79
2021/09/01 03:52:42;;;;;;;6.62;5.05;;;;;;;14.28;100.00;100559.16;1614754;87;25725;-80
2021/09/01 03:55:10;;;;;;;5.50;4.62;;;;;;;14.27;100.00;100569.62;1600580;87;25375;-79
2021/09/01 03:57:37;;;;;;;5.50;4.90;;;;;;;14.26;100.00;100576.90;1620577;87;25884;-80
2021/09/01 04:00:10;;;;;;;6.60;5.25;;;;;;;14.25;100.00;100582.47;1607101;87;25893;-79
2021/09/01 04:02:41;;;;;;;10.63;5.85;;;;;;;14.24;100.00;100581.64;1579521;87;27485;-79
2021/09/01 04:05:09;;;;;;;6.17;5.42;;;;;;;14.22;100.00;100588.30;1609288;87;25860;-81
2021/09/01 04:07:35;;;;;;;8.73;6.42;;;;;;;14.23;100.00;100596.67;1652313;85;25490;-79
2021/09/01 04:10:04;;;;;;;9.33;5.28;;;;;;;14.21;100.00;100594.71;1634572;84;25696;-79
2021/09/01 04:12:31;;;;;;;7.92;6.10;;;;;;;14.20;100.00;100595.22;1655043;84;26001;-79
2021/09/01 04:14:58;;;;;;;9.63;6.83;;;;;;;14.19;100.00;100603.02;1655173;84;28725;-80
2021/09/01 04:17:29;;;;;;;9.08;6.30;;;;;;;14.18;100.00;100606.73;1673370;84;25782;-78
2021/09/01 04:19:54;;;;;;;9.10;6.78;;;;;;;14.17;100.00;100615.87;1653508;85;25838;-79
2021/09/01 04:22:21;;;;;;;11.88;7.30;;;;;;;14.18;100.00;100612.12;1657517;84;25963;-79
2021/09/01 04:24:48;;;;;;;10.65;7.15;;;;;;;14.17;100.00;100615.03;1652179;84;25539;-79
2021/09/01 04:27:14;;;;;;;9.43;7.30;;;;;;;14.17;100.00;100615.87;1672023;84;27621;-79
2021/09/01 04:29:41;;;;;;;11.40;8.43;;;;;;;14.18;100.00;100618.05;1651228;85;25879;-79
2021/09/01 04:32:09;;;;;;;13.38;8.13;;;;;;;14.20;100.00;100622.70;1615736;86;25837;-79
2021/09/01 04:34:36;;;;;;;13.28;8.93;;;;;;;14.20;100.00;100624.86;1653670;84;26553;-79
2021/09/01 04:37:03;;;;;;;13.70;9.48;;;;;;;14.20;100.00;100623.52;1671946;84;25780;-79
2021/09/01 04:39:30;;;;;;;12.90;8.98;;;;;;;14.19;100.00;100628.61;1651114;85;27348;-80
2021/09/01 04:41:57;;;;;;;11.03;9.28;;;;;;;14.20;100.00;100634.83;1628964;85;26071;-78
2021/09/01 04:44:24;;;;;;;14.00;10.23;;;;;;;14.19;100.00;100630.47;1655135;84;25340;-79
2021/09/01 04:46:51;;;;;;;14.45;9.43;;;;;;;14.20;100.00;100645.06;1667343;85;26344;-79
2021/09/01 04:49:18;;;;;;;13.93;9.60;;;;;;;14.22;100.00;100644.88;1651999;85;26004;-79
2021/09/01 04:51:45;;;;;;;14.65;10.03;;;;;;;14.21;100.00;100636.47;1602817;85;27605;-79
2021/09/01 04:54:12;;;;;;;14.90;10.15;;;;;;;14.22;100.00;100649.72;1624417;85;26589;-79
2021/09/01 04:56:40;;;;;;;12.70;9.70;;;;;;;14.24;100.00;100646.84;1647589;86;25866;-79
2021/09/01 04:59:07;;;;;;;15.68;10.13;;;;;;;14.24;100.00;100636.87;1585786;87;25851;-79
2021/09/01 05:01:34;;;;;;;15.32;9.83;;;;;;;14.25;100.00;100650.66;1592752;87;25871;-79
2021/09/01 05:04:01;;;;;;;13.98;9.85;;;;;;;14.25;100.00;100647.97;1610306;87;27567;-79
2021/09/01 05:06:28;;;;;;;17.95;10.78;;;;;;;14.27;100.00;100652.62;1646650;85;25938;-79
2021/09/01 05:08:55;;;;;;;13.18;9.95;;;;;;;14.28;100.00;100647.56;1653259;84;26667;-81
2021/09/01 05:11:23;;;;;;;16.45;10.43;;;;;;;14.29;100.00;100652.45;1672634;84;26094;-79
2021/09/01 05:13:50;;;;;;;15.05;10.80;;;;;;;14.29;100.00;100650.59;1649105;85;25853;-79
2021/09/01 05:16:17;;;;;;;17.27;10.88;;;;;;;14.30;100.00;100642.83;1658466;84;27550;-79
2021/09/01 05:18:44;;;;;;;14.45;9.28;;;;;;;14.30;100.00;100655.47;1657854;85;25883;-80
2021/09/01 05:21:13;;;;;;;13.15;9.70;;;;;;;14.29;100.00;100641.16;1654698;84;25846;-80
2021/09/01 05:23:42;;;;;;;15.20;10.10;;;;;;;14.29;100.00;100653.28;1600880;87;25993;-79
2021/09/01 05:26:10;;;;;;;17.50;10.15;;;;;;;14.28;100.00;100650.77;1627006;87;25802;-79
2021/09/01 05:28:38;;;;;;;13.98;10.58;;;;;;;14.26;100.00;100654.20;1631361;84;27557;-80
2021/09/01 05:31:07;;;;;;;17.90;10.58;;;;;;;14.25;100.00;100667.34;1639411;86;25855;-79
2021/09/01 05:33:39;;;;;;;17.27;10.05;;;;;;;14.24;100.00;100665.16;1652255;84;25890;-79
2021/09/01 05:36:07;;;;;;;16.40;10.08;;;;;;;14.24;100.00;100663.81;1662302;85;26612;-80
2021/09/01 05:38:34;;;;;;;15.25;10.15;;;;;;;14.26;100.00;100671.71;1651763;84;25915;-79
2021/09/01 05:41:03;;;;;;;12.95;9.63;;;;;;;14.28;100.00;100675.86;1614147;87;28332;-80
2021/09/01 05:43:30;;;;;;;18.87;10.70;;;;;;;14.32;100.00;100682.52;1655534;85;25872;-78
2021/09/01 05:45:57;;;;;;;22.05;10.82;;;;;;;14.36;100.00;100667.58;1673519;84;25329;-80
2021/09/01 05:48:25;;;;;;;13.72;10.78;;;;;;;14.44;100.00;100675.44;1649363;85;25868;-78
2021/09/01 05:50:55;;;;;;;17.65;9.73;;;;;;;14.53;100.00;100671.49;1614288;87;26054;-79
2021/09/01 05:53:23;;;;;;;13.15;8.80;;;;;;;14.61;100.00;100669.91;1620139;86;33303;-79
2021/09/01 05:55:53;;;;;;;17.05;10.65;;;;;;;14.73;100.00;100676.00;1650116;86;25841;-79
2021/09/01 05:58:21;;;;;;;12.23;8.83;;;;;;;14.79;100.00;100674.64;1639038;86;25949;-79
2021/09/01 06:00:56;;;;;;;15.23;10.00;;;;;;;14.83;100.00;100679.91;1600835;86;25949;-79
2021/09/01 06:03:34;;;;;;;16.70;10.30;;;;;;;14.86;100.00;100680.85;1622914;86;25941;-78
2021/09/01 06:06:04;;;;;;;16.73;9.53;;;;;;;14.93;100.00;100684.33;1625735;87;27500;-78
2021/09/01 06:08:34;;;;;;;16.10;9.93;;;;;;;15.01;100.00;100690.03;1658376;85;25918;-79
2021/09/01 06:11:08;;;;;;;12.88;8.70;;;;;;;15.06;100.00;100691.03;1617126;86;25835;-78
2021/09/01 06:13:35;;;;;;;14.05;9.03;;;;;;;15.07;100.00;100699.45;1616790;87;25926;-79
2021/09/01 06:16:02;;;;;;;12.82;8.45;;;;;;;15.10;100.00;100704.91;1667277;85;25907;-79
2021/09/01 06:18:29;;;;;;;15.32;9.88;;;;;;;15.11;100.00;100702.02;1670636;84;27646;-80
2021/09/01 06:20:57;;;;;;;11.70;9.30;;;;;;;15.10;100.00;100712.49;1618476;86;25854;-78
2021/09/01 06:23:24;;;;;;;10.72;7.75;;;;;;;15.12;100.00;100713.11;1677355;84;26695;-81
2021/09/01 06:25:51;;;;;;;16.40;8.45;;;;;;;15.20;100.00;100713.41;1654705;85;26594;-79
2021/09/01 06:28:18;;;;;;;15.85;8.53;;;;;;;15.22;100.00;100709.97;1647196;85;25324;-79
2021/09/01 06:30:45;;;;;;;13.90;7.92;;;;;;;15.22;100.00;100709.45;1637556;86;27617;-79
2021/09/01 06:33:12;;;;;;;13.03;9.25;;;;;;;15.21;100.00;100708.30;1620070;86;26566;-79
2021/09/01 06:35:41;;;;;;;14.33;8.25;;;;;;;15.22;100.00;100725.64;1649901;86;25921;-79
2021/09/01 06:38:09;;;;;;;10.98;8.58;;;;;;;15.27;100.00;100715.53;1624962;86;25922;-79
2021/09/01 06:40:37;;;;;;;15.88;8.68;;;;;;;15.29;99.87;100723.73;1600634;87;26599;-79
2021/09/01 06:43:05;;;;;;;11.60;7.58;;;;;;;15.34;100.00;100718.52;1617924;86;28115;-79
2021/09/01 06:45:32;;;;;;;13.93;8.25;;;;;;;15.37;99.25;100714.58;1630303;87;25848;-79
2021/09/01 06:47:59;;;;;;;9.83;6.83;;;;;;;15.46;99.68;100727.33;1632123;85;26469;-81
2021/09/01 06:50:27;;;;;;;12.28;7.47;;;;;;;15.55;98.34;100728.72;1627973;85;26638;-80
2021/09/01 06:52:56;;;;;;;9.10;7.47;;;;;;;15.61;98.18;100721.13;1653462;84;25849;-79
2021/09/01 06:55:23;;;;;;;12.70;7.62;;;;;;;15.70;99.04;100730.09;1644901;85;27604;-79
2021/09/01 06:57:50;;;;;;;11.45;7.05;;;;;;;15.83;99.11;100734.06;1626461;84;25978;-80
2021/09/01 07:00:19;;;;;;;10.10;6.45;;;;;;;15.97;98.25;100729.41;1615746;87;26634;-79
2021/09/01 07:02:46;;;;;;;11.12;7.28;;;;;;;15.99;96.55;100724.63;1656173;84;25830;-79
2021/09/01 07:05:14;;;;;;;9.88;7.53;;;;;;;16.03;96.18;100738.83;1673737;84;26950;-79
2021/09/01 07:07:43;;;;;;;11.93;7.10;;;;;;;16.07;95.50;100738.69;1652066;84;27471;-79
2021/09/01 07:10:12;;;;;;;14.35;7.20;;;;;;;16.17;96.28;100742.24;1631850;84;25705;-79
2021/09/01 07:12:40;;;;;;;11.30;7.12;;;;;;;16.28;96.50;100746.11;1677904;84;25952;-80
2021/09/01 07:15:09;;;;;;;12.30;6.72;;;;;;;16.28;95.35;100752.86;1668044;85;26543;-78
2021/09/01 07:17:37;;;;;;;11.88;7.33;;;;;;;16.23;93.78;100753.52;1628623;85;26525;-79
2021/09/01 07:20:06;;;;;;;11.85;6.83;;;;;;;16.23;94.29;100760.83;1630132;84;27089;-79
2021/09/01 07:22:33;;;;;;;9.28;6.55;;;;;;;16.24;93.88;100753.84;1670699;84;25963;-79
2021/09/01 07:25:01;;;;;;;11.33;6.85;;;;;;;16.29;93.91;100764.00;1668684;85;25843;-79
2021/09/01 07:27:28;;;;;;;10.90;6.65;;;;;;;16.41;93.24;100767.63;1614460;86;25908;-79
2021/09/01 07:29:55;;;;;;;11.05;7.15;;;;;;;16.46;92.28;100764.59;1632545;84;25805;-78
2021/09/01 07:32:22;;;;;;;11.12;6.62;;;;;;;16.52;93.33;100765.60;1673579;84;27464;-79
2021/09/01 07:34:49;;;;;;;9.40;7.05;;;;;;;16.62;92.43;100761.34;1671985;85;26719;-81
2021/09/01 07:37:16;;;;;;;11.03;6.60;;;;;;;16.72;93.60;100768.97;1615560;87;25910;-80
2021/09/01 07:39:43;;;;;;;10.45;6.92;;;;;;;16.72;90.59;100774.38;1618886;87;25825;-79
2021/09/01 07:42:10;;;;;;;9.70;5.80;;;;;;;16.66;90.34;100767.12;1643746;87;25827;-80
2021/09/01 07:44:37;;;;;;;9.50;5.37;;;;;;;16.63;91.01;100770.29;1672587;84;28130;-80
2021/09/01 07:47:04;;;;;;;9.83;6.22;;;;;;;16.55;90.03;100778.69;1633836;86;26449;-79
2021/09/01 07:49:31;;;;;;;9.05;6.10;;;;;;;16.51;90.20;100772.87;1639943;84;25920;-79
2021/09/01 07:51:58;;;;;;;10.70;5.72;;;;;;;16.57;91.11;100776.05;1671527;84;26963;-79
2021/09/01 07:54:25;;;;;;;8.90;6.00;;;;;;;16.66;90.54;100784.19;1671746;84;25510;-79
2021/09/01 07:56:52;;;;;;;9.15;6.25;;;;;;;16.74;90.83;100791.21;1646500;84;27474;-79
2021/09/01 07:59:19;;;;;;;9.85;6.67;;;;;;;16.81;90.63;100781.97;1631100;85;25846;-79
2021/09/01 08:01:46;;;;;;;11.10;6.17;;;;;;;16.85;89.96;100791.84;1668955;84;25824;-80
2021/09/01 08:04:13;;;;;;;8.80;5.85;;;;;;;16.87;90.34;100791.89;1671230;84;26289;-80
2021/09/01 08:06:40;;;;;;;11.12;6.10;;;;;;;16.87;89.14;100789.19;1609330;85;25866;-79
2021/09/01 08:09:07;;;;;;;10.00;5.78;;;;;;;16.87;88.24;100798.66;1660826;84;28238;-79
2021/09/01 08:11:35;;;;;;;8.40;5.47;;;;;;;16.80;87.26;100803.33;1649420;85;25829;-79
2021/09/01 08:14:02;;;;;;;10.72;5.33;;;;;;;16.72;86.97;100794.12;1673232;84;25960;-80
2021/09/01 08:16:29;;;;;;;7.67;6.05;;;;;;;16.68;86.92;100805.63;1620888;85;25855;-80
2021/09/01 08:18:56;;;;;;;9.78;5.97;;;;;;;16.74;87.87;100810.95;1636360;84;25900;-79
2021/09/01 08:21:23;;;;;;;9.98;5.85;;;;;;;16.84;89.42;100817.22;1672605;84;27645;-80
2021/09/01 08:23:50;;;;;;;8.33;5.65;;;;;;;16.91;87.62;100819.35;1671651;84;26527;-80
2021/09/01 08:26:17;;;;;;;6.83;5.12;;;;;;;16.91;86.33;100826.12;1627940;85;26531;-79
2021/09/01 08:28:45;;;;;;;9.55;5.50;;;;;;;16.91;85.77;100823.41;1657335;85;25909;-79
2021/09/01 08:31:12;;;;;;;10.85;6.37;;;;;;;17.01;86.03;100828.30;1672716;84;25834;-79
2021/09/01 08:33:39;;;;;;;7.45;6.15;;;;;;;17.17;86.10;100833.16;1657259;85;27658;-80
2021/09/01 08:36:06;;;;;;;9.70;5.95;;;;;;;17.28;85.87;100831.06;1617879;86;25867;-79
2021/09/01 08:38:33;;;;;;;9.80;5.83;;;;;;;17.25;84.36;100828.27;1598745;87;26521;-79
2021/09/01 08:41:01;;;;;;;6.87;5.50;;;;;;;17.18;83.19;100828.86;1626893;87;25840;-80
2021/09/01 08:43:28;;;;;;;12.18;6.28;;;;;;;17.17;83.67;100838.02;1630937;87;25813;-80
2021/09/01 08:45:55;;;;;;;11.03;6.00;;;;;;;17.13;83.67;100840.87;1579327;87;27538;-80
2021/09/01 08:48:23;;;;;;;12.43;6.22;;;;;;;17.10;83.96;100838.63;1597803;87;26025;-80
2021/09/01 08:50:50;;;;;;;9.65;5.15;;;;;;;17.15;84.43;100846.89;1671361;85;25821;-80
2021/09/01 08:53:17;;;;;;;9.93;6.17;;;;;;;17.28;84.53;100841.89;1669384;85;26097;-79
2021/09/01 08:55:44;;;;;;;10.60;5.83;;;;;;;17.41;83.90;100840.37;1636848;86;25849;-79
2021/09/01 08:58:11;;;;;;;9.63;6.00;;;;;;;17.52;83.77;100843.20;1617626;87;27633;-79
2021/09/01 09:00:38;;;;;;;10.08;7.10;;;;;;;17.61;83.20;100842.37;1631131;87;26290;-79
2021/09/01 09:03:05;;;;;;;9.58;5.75;;;;;;;17.65;82.11;100836.80;1625453;87;26505;-79
2021/09/01 09:05:39;;;;;;;8.53;5.47;;;;;;;17.62;82.24;100846.20;1598817;88;26441;-79
2021/09/01 09:08:13;;;;;;;7.95;6.05;;;;;;;17.61;82.67;100850.50;1587615;87;26690;-79
2021/09/01 09:10:46;;;;;;;8.58;5.80;;;;;;;17.58;81.82;100854.48;1618195;87;27596;-79
2021/09/01 09:13:18;;;;;;;12.35;6.25;;;;;;;17.47;80.74;100849.77;1618983;87;26144;-78
2021/09/01 09:15:48;;;;;;;10.43;5.58;;;;;;;17.41;80.82;100843.91;1612081;86;25913;-79
2021/09/01 09:18:28;;;;;;;7.15;5.50;;;;;;;17.54;80.88;100842.96;1583399;86;26534;-79
2021/09/01 09:21:18;;;;;;;8.95;5.50;;;;;;;17.58;81.53;100853.64;1618923;87;25793;-79
2021/09/01 09:23:48;;;;;;;10.93;5.23;;;;;;;17.57;81.41;100856.91;1645935;86;28220;-80
2021/09/01 09:26:31;;;;;;;7.83;5.33;;;;;;;17.57;81.24;100849.30;1629657;86;25342;-79
2021/09/01 09:29:17;;;;;;;12.53;5.75;;;;;;;17.66;82.05;100845.23;1629731;86;25769;-79
2021/09/01 09:31:48;;;;;;;8.33;5.67;;;;;;;17.76;80.95;100850.10;1637068;86;26212;-80
2021/09/01 09:34:20;;;;;;;9.35;5.55;;;;;;;17.79;80.91;100849.14;1626432;87;26031;-78
2021/09/01 09:37:10;;;;;;;7.37;5.15;;;;;;;17.85;77.74;100855.00;1588074;89;28806;-79
2021/09/01 09:39:48;;;;;;;8.63;5.12;;;;;;;17.87;77.73;100865.08;1600701;85;25849;-79
2021/09/01 09:42:37;;;;;;;6.35;4.95;;;;;;;17.81;77.20;100859.23;1674229;84;26384;-79
2021/09/01 09:45:26;;;;;;;10.15;4.60;;;;;;;17.75;78.29;100864.17;1676538;84;25892;-79
2021/09/01 09:47:57;;;;;;;8.10;5.00;;;;;;;17.68;78.98;100867.51;1623275;84;25867;-79
2021/09/01 09:50:24;;;;;;;7.17;4.80;;;;;;;17.64;79.33;100877.14;1624671;85;27761;-79
2021/09/01 09:52:51;;;;;;;9.13;4.75;;;;;;;17.65;80.21;100872.02;1674822;84;25783;-79
2021/09/01 09:55:21;;;;;;;5.17;3.98;;;;;;;17.66;79.45;100876.39;1677386;84;26060;-79
2021/09/01 09:57:57;;;;;;;6.28;4.42;;;;;;;17.64;78.99;100875.79;1631387;85;26607;-79
2021/09/01 10:00:26;;;;;;;6.80;4.70;;;;;;;17.67;78.77;100875.32;1628825;84;25345;-79
2021/09/01 10:02:53;;;;;;;5.00;4.08;;;;;;;17.81;79.90;100875.48;1674036;84;27574;-79
2021/09/01 10:05:23;;;;;;;6.95;4.37;;;;;;;17.99;79.80;100874.09;1654695;84;25848;-80
2021/09/01 10:07:51;;;;;;;7.50;4.55;;;;;;;18.14;77.09;100880.45;1619558;86;25638;-79
2021/09/01 10:10:18;;;;;;;8.13;5.03;;;;;;;18.29;77.64;100873.58;1604769;87;25936;-78
2021/09/01 10:12:47;;;;;;;8.38;4.22;;;;;;;18.40;77.56;100876.03;1630643;87;25401;-79
2021/09/01 10:15:25;;;;;;;7.45;3.92;;;;;;;18.35;75.66;100868.58;1612645;87;27469;-79
2021/09/01 10:17:56;;;;;;;6.35;3.52;;;;;;;18.28;75.53;100871.10;1652402;84;26585;-79
2021/09/01 10:20:25;;;;;;;6.45;4.08;;;;;;;18.12;74.15;100886.64;1624570;85;26670;-80
2021/09/01 10:23:05;;;;;;;5.28;3.92;;;;;;;17.99;73.76;100881.39;1671375;84;26538;-79
2021/09/01 10:25:49;;;;;;;6.97;4.30;;;;;;;18.08;75.86;100882.21;1672419;84;25991;-78
2021/09/01 10:28:30;;;;;;;5.40;3.80;;;;;;;18.26;76.15;100882.16;1633002;84;28398;-79
2021/09/01 10:31:17;;;;;;;5.30;3.55;;;;;;;18.46;77.00;100875.97;1629939;85;26278;-79
2021/09/01 10:33:48;;;;;;;6.28;4.10;;;;;;;18.64;73.80;100881.86;1671560;84;26372;-79
2021/09/01 10:36:29;;;;;;;7.65;4.15;;;;;;;18.76;72.13;100875.08;1673992;84;26801;-80
2021/09/01 10:39:05;;;;;;;4.50;3.10;;;;;;;18.87;72.34;100879.18;1653806;84;26118;-79
2021/09/01 10:41:33;;;;;;;4.65;3.40;;;;;;;18.98;70.82;100885.16;1673559;84;27584;-79
2021/09/01 10:44:22;;;;;;;6.58;3.60;;;;;;;18.97;71.97;100889.45;1592931;87;26543;-80
2021/09/01 10:46:59;;;;;;;3.90;3.10;;;;;;;18.93;72.28;100882.31;1654349;84;25654;-79
2021/09/01 10:49:47;;;;;;;5.85;3.20;;;;;;;18.82;71.21;100886.39;1651922;84;26677;-79
2021/09/01 10:52:14;;;;;;;5.72;3.55;;;;;;;18.77;70.92;100892.51;1670079;84;25864;-79
2021/09/01 10:54:41;;;;;;;6.10;3.25;;;;;;;18.91;73.68;100894.46;1648425;85;28318;-79
2021/09/01 10:57:25;;;;;;;5.35;3.47;;;;;;;18.92;72.91;100903.75;1628016;85;25891;-79
2021/09/01 10:59:52;;;;;;;4.05;3.10;;;;;;;18.86;71.69;100907.38;1674503;84;26604;-78
2021/09/01 11:02:22;;;;;;;5.15;2.90;;;;;;;18.75;72.51;100899.22;1668232;84;26516;-79
2021/09/01 11:04:55;;;;;;;5.50;3.50;;;;;;;18.65;71.79;100899.77;1629109;85;25892;-79
2021/09/01 11:07:31;;;;;;;3.65;2.67;;;;;;;18.63;72.39;100898.34;1651175;85;27608;-78
2021/09/01 11:10:05;;;;;;;4.62;2.65;;;;;;;18.77;74.55;100899.81;1650824;85;26625;-79
2021/09/01 11:12:41;;;;;;;4.22;3.08;;;;;;;19.04;75.61;100901.03;1667912;85;25913;-80
2021/09/01 11:15:06;;;;;;;5.62;2.67;;;;;;;19.22;71.89;100894.15;1651031;85;25909;-78
2021/09/01 11:17:33;;;;;;;2.72;2.22;;;;;;;19.17;70.89;100900.28;1654829;85;25960;-79
2021/09/01 11:20:03;;;;;;;6.50;2.70;;;;;;;19.14;70.87;100899.91;1627766;85;27643;-80
2021/09/01 11:22:37;;;;;;;6.10;3.27;;;;;;;19.29;72.34;100898.11;1677466;84;25838;-79
2021/09/01 11:25:13;;;;;;;3.70;2.85;;;;;;;19.51;71.12;100900.53;1654651;84;25827;-79